Aérodrome :
LOGIN :

S'inscrire | Disclaimer

   EN    FR    IT 

 










Légende :    VFR   VFR Marginal   IFR   IFR Intensif   IFR Très Intensif
Visi : 
Plafond : 
>= 8 km
>= 3000ft
5 à 8 km
1000 à 3000 ft
1500m à 5 km
500 à 1000 ft
800 à 1500m
200 à 500 ft
< 800m
< 200 ft
Symboles :   Orages  Brouillard  Fortes neiges  Fortes précipitations  Vent > 20 kt
SIGMETs :   Divers  Orages  Givrage  Turbulence  Onde Orograph.  Cendres Volcan.






- Altitude de l'aérodrome : 297 ft
- Code IATA : BBU


LRBS - Bucarest - Baneasa Aurel Vlaicu

DERNIER METAR :
  • 201900Z 06014KT 5000 -RA BR FEW007 SCT015 OVC030 11/10 Q1021 R07/19//95 NOSIG

METARs EXPIRÉS :
  • 201830Z 07013KT 6000 OVC008 12/10 Q1021 NOSIG
  • 201800Z 06014KT 6000 OVC008 12/10 Q1021 NOSIG
  • 201730Z 07015KT 5000 BR OVC007 12/10 Q1021 NOSIG
  • 201700Z 06016KT 6000 OVC008 12/10 Q1021 NOSIG
  • 201630Z 06016KT 6000 BKN008 OVC016 12/10 Q1020 BECMG 5000 BR

TAF TAF LRBS
Valide du 20 à 18h jusqu'au 21 à 18h UTC


201700Z 2018/2118 07015KT 5000 BR BKN005 OVC020
TEMPO 2019/2024 3000 -RA BR BKN010 OVC025
BECMG 2105/2107 7000 NSW BKN010 BKN035
BECMG 2108/2110 07017G27KT 5000 -RA BR
TEMPO 2111/2116 3000 RA BR BKN005 OVC020



MET'MAP, la Météo Aéronautique d'un coup d'oeil ! - Copyright ORBIFLY Décembre 2007 - Disclaimer

ORBIFLY MET'MAP TEAM :

Programmation & Développement : Alexandra Zaïnal
Conception & Développement : Baudouin d'Aumeries
Co-Programmation & Développement : Marc-Olivier Méhu
Soutien technique & logistique : Manuel Goepfert

Contact : metmap@orbifly.com




SOURCES & CREDITS :

   NOAA